This is the latest recevied weather packets stored in our database for station/object 9M4RBN-3. If no packets are shown the sender has not sent any weather packets the latest 10 day(s).
| Time | Temp. | Humidity | Pressure | Rain* | Wind** | Luminosity | Snow |
|---|---|---|---|---|---|---|---|
| 1787435334 | 24.44° C | 45% | 1016.1 hPa | - | - | - | - |
| 1787434434 | 24.44° C | 44% | 1016 hPa | - | - | - | - |
| 1787433534 | 25° C | 45% | 1016.2 hPa | - | - | - | - |
| 1787432634 | 25.56° C | 44% | 1016.2 hPa | - | - | - | - |
| 1787431734 | 26.11° C | 44% | 1016.2 hPa | - | - | - | - |
| 1787430867 | 26.67° C | 46% | 1016 hPa | - | - | - | - |
| 1787430834 | 26.67° C | 46% | 1016 hPa | - | - | - | - |
| 1787429934 | 27.22° C | 52% | 1016 hPa | - | - | - | - |
| 1787429034 | 28.33° C | 65% | 1016.1 hPa | - | - | - | - |
| 1787428134 | 28.33° C | 64% | 1016.1 hPa | - | - | - | - |
| 1787427234 | 28.33° C | 64% | 1016 hPa | - | - | - | - |
| 1787426334 | 28.33° C | 64% | 1016.1 hPa | - | - | - | - |
| 1787425434 | 28.33° C | 63% | 1016.2 hPa | - | - | - | - |
| 1787424534 | 28.33° C | 63% | 1016.1 hPa | - | - | - | - |
| 1787423634 | 28.33° C | 62% | 1016.4 hPa | - | - | - | - |
| 1787422734 | 28.33° C | 62% | 1016.6 hPa | - | - | - | - |
| 1787421834 | 28.33° C | 61% | 1016.7 hPa | - | - | - | - |
| 1787420933 | 27.78° C | 61% | 1016.8 hPa | - | - | - | - |
| 1787420033 | 27.78° C | 61% | 1016.9 hPa | - | - | - | - |
| 1787419133 | 27.78° C | 60% | 1017.2 hPa | - | - | - | - |
| 1787418233 | 27.78° C | 59% | 1017.5 hPa | - | - | - | - |
| 1787417333 | 27.22° C | 58% | 1017.8 hPa | - | - | - | - |
| 1787416433 | 26.67° C | 56% | 1017.9 hPa | - | - | - | - |
| 1787415533 | 26.11° C | 52% | 1018 hPa | - | - | - | - |
| 1787414633 | 25° C | 44% | 1018.3 hPa | - | - | - | - |
* Rain since midnight (hover to see other rain measurements)
** Current wind speed in m/s (hover to see current wind gust speed)